INFORMACIóN METAR y TAF
METAR FOR SABE
ADDS - METARS form results

(1238 UTC 12 August 2020)
Data provider http://aviationweather.gov/metar/data/
 
METAR text: SABE 121227Z 32007KT CAVOK 10/M03 Q1018 NOSIG
Conditions at: SABE (AEROPARQUE(CIV/M, AR) observed 1227 UTC 12 August 2020
Temperature: 10.0°C (50°F)
Dewpoint: -3.0°C (27°F) [RH = 40%]
Pressure (altimeter): 30.06 inches Hg (1018.0 mb)
Winds: from the NW (320 degrees) at 8 MPH (7 knots; 3.6 m/s)
Visibility: 6 or more miles (10+ km)
Ceiling: ceiling and visibility are OK
Clouds: unknown
Weather: no significant weather observed at this time

METAR text: SABE 121200Z VRB02KT CAVOK 08/M03 Q1018 NOSIG
Conditions at: SABE (AEROPARQUE(CIV/M, AR) observed 1200 UTC 12 August 2020
Temperature: 8.0°C (46°F)
Dewpoint: -3.0°C (27°F) [RH = 46%]
Pressure (altimeter): 30.06 inches Hg (1018.0 mb)
Winds: variable direction winds at 2 MPH (2 knots; 1.0 m/s)
Visibility: 6 or more miles (10+ km)
Ceiling: ceiling and visibility are OK
Clouds: unknown
Weather: no significant weather observed at this time

Forecast for: SABE (AEROPARQUE(CIV/M, AR)
Text: TAF SABE 121100Z 1212/1312 31005KT CAVOK TX15/1218Z TN07/1310Z
Forecast period: 1200 to 1800 UTC 12 August 2020
Forecast type: FROM: standard forecast or significant change
Winds: from the NW (310 degrees) at 6 MPH (5 knots; 2.6 m/s)
Visibility: 6 or more miles (10+ km)
Ceiling: unknown
Clouds: missing
Weather: no significant weather forecast for this period
Text: BECMG 1218/1220 36010KT
Forecast period: 1800 UTC 12 August 2020 to 1200 UTC 13 August 2020
Forecast type: BECOMING: Conditions expected to become as follows by 2000 UTC 12 August 2020
Winds: from the N (360 degrees) at 12 MPH (10 knots; 5.1 m/s)
Visibility: 6 or more miles (10+ km)
Ceiling: unknown
Clouds: missing
Weather: no significant weather forecast for this period

MAPA DE AEROPUERTO

INFORMACIóN DE PISTA
Pista 13 Longitud 6890 ft Ancho 131 ft
Elevación 18 ft Umbral desplazado 0 ft Rumbo de pista 124
Pista 31 Longitud 6890 ft Ancho 131 ft
Elevación 15 ft Umbral desplazado 417 ft Rumbo de pista 304

FRECUANCIAS DEL AEROPUERTO
Tipo APP Nombre APP Frecuencia 120.6 MHZ
Tipo ATIS Nombre ATIS Frecuencia 127.6 MHZ
Tipo CLD Nombre CLNC DEL Frecuencia 129.3 MHZ
Tipo GND Nombre GND Frecuencia 121.9 MHZ
Tipo TWR Nombre TWR Frecuencia 118.85 MHZ

RADIO AYUDAS DEL AEROPUERTO
Tipo NDB Nombre Aeroparque Jorge Newbery Frecuencia 260 KHZ



Si desea hacer un donativo para mantenimiento de el dominio y el alojamiento web pulse en elboton donar y siga los pasos. Desde ya muchas gracias.

Powered by Virtual Airlines Manager
Ver 2.5.2